sensor_id;sensor_type;location;lat;lon;timestamp;temperature;humidity
6307;DHT22;3186;54.062;9.962;2023-11-21T00:02:20;9.30;99.90
6307;DHT22;3186;54.062;9.962;2023-11-21T00:04:47;9.20;99.90
6307;DHT22;3186;54.062;9.962;2023-11-21T00:07:13;9.30;99.90
6307;DHT22;3186;54.062;9.962;2023-11-21T00:09:40;9.30;99.90
6307;DHT22;3186;54.062;9.962;2023-11-21T00:12:07;9.30;99.90
6307;DHT22;3186;54.062;9.962;2023-11-21T00:14:39;9.30;99.90
6307;DHT22;3186;54.062;9.962;2023-11-21T00:17:05;9.20;99.90
6307;DHT22;3186;54.062;9.962;2023-11-21T00:19:31;9.20;99.90
6307;DHT22;3186;54.062;9.962;2023-11-21T00:21:57;9.10;99.90
6307;DHT22;3186;54.062;9.962;2023-11-21T00:24:24;9.20;99.90
6307;DHT22;3186;54.062;9.962;2023-11-21T00:26:50;9.20;99.90
6307;DHT22;3186;54.062;9.962;2023-11-21T00:29:17;9.20;99.90
6307;DHT22;3186;54.062;9.962;2023-11-21T00:31:44;9.20;99.90
6307;DHT22;3186;54.062;9.962;2023-11-21T00:34:12;9.20;99.90
6307;DHT22;3186;54.062;9.962;2023-11-21T00:36:37;9.20;99.90
6307;DHT22;3186;54.062;9.962;2023-11-21T00:39:03;9.10;99.90
6307;DHT22;3186;54.062;9.962;2023-11-21T00:41:31;9.20;99.90
6307;DHT22;3186;54.062;9.962;2023-11-21T00:43:57;9.10;99.90
6307;DHT22;3186;54.062;9.962;2023-11-21T00:46:22;9.00;99.90
6307;DHT22;3186;54.062;9.962;2023-11-21T00:48:49;9.00;99.90
6307;DHT22;3186;54.062;9.962;2023-11-21T00:51:16;9.10;99.90
6307;DHT22;3186;54.062;9.962;2023-11-21T00:53:43;9.10;99.90
6307;DHT22;3186;54.062;9.962;2023-11-21T00:56:08;9.10;99.90
6307;DHT22;3186;54.062;9.962;2023-11-21T00:58:34;9.10;99.90
6307;DHT22;3186;54.062;9.962;2023-11-21T01:01:00;9.10;99.90
6307;DHT22;3186;54.062;9.962;2023-11-21T01:03:26;9.00;99.90
6307;DHT22;3186;54.062;9.962;2023-11-21T01:05:52;9.10;99.90
6307;DHT22;3186;54.062;9.962;2023-11-21T01:08:17;9.00;99.90
6307;DHT22;3186;54.062;9.962;2023-11-21T01:10:43;9.00;99.90
6307;DHT22;3186;54.062;9.962;2023-11-21T01:13:08;9.10;99.90
6307;DHT22;3186;54.062;9.962;2023-11-21T01:15:36;9.00;99.90
6307;DHT22;3186;54.062;9.962;2023-11-21T01:18:02;9.00;99.90
6307;DHT22;3186;54.062;9.962;2023-11-21T01:20:29;8.90;99.90
6307;DHT22;3186;54.062;9.962;2023-11-21T01:22:54;8.90;99.90
6307;DHT22;3186;54.062;9.962;2023-11-21T01:25:20;8.90;99.90
6307;DHT22;3186;54.062;9.962;2023-11-21T01:27:48;9.00;99.90
6307;DHT22;3186;54.062;9.962;2023-11-21T01:30:13;9.00;99.90
6307;DHT22;3186;54.062;9.962;2023-11-21T01:32:39;9.00;99.90
6307;DHT22;3186;54.062;9.962;2023-11-21T01:35:06;8.90;99.90
6307;DHT22;3186;54.062;9.962;2023-11-21T01:37:32;9.00;99.90
6307;DHT22;3186;54.062;9.962;2023-11-21T01:39:59;8.90;99.90
6307;DHT22;3186;54.062;9.962;2023-11-21T01:42:24;8.90;99.90
6307;DHT22;3186;54.062;9.962;2023-11-21T01:44:50;8.90;99.90
6307;DHT22;3186;54.062;9.962;2023-11-21T01:47:16;8.90;99.90
6307;DHT22;3186;54.062;9.962;2023-11-21T01:49:46;7.60;99.90
6307;DHT22;3186;54.062;9.962;2023-11-21T01:52:12;8.90;99.90
6307;DHT22;3186;54.062;9.962;2023-11-21T01:54:38;8.40;99.90
6307;DHT22;3186;54.062;9.962;2023-11-21T01:57:05;8.90;99.90
6307;DHT22;3186;54.062;9.962;2023-11-21T01:59:38;8.80;99.90
6307;DHT22;3186;54.062;9.962;2023-11-21T02:02:07;8.80;99.90
6307;DHT22;3186;54.062;9.962;2023-11-21T02:04:36;8.90;99.90
6307;DHT22;3186;54.062;9.962;2023-11-21T02:07:03;8.80;99.90
6307;DHT22;3186;54.062;9.962;2023-11-21T02:09:31;8.80;99.90
6307;DHT22;3186;54.062;9.962;2023-11-21T02:11:59;8.80;99.90
6307;DHT22;3186;54.062;9.962;2023-11-21T02:14:25;8.80;99.90
6307;DHT22;3186;54.062;9.962;2023-11-21T02:16:53;8.80;99.90
6307;DHT22;3186;54.062;9.962;2023-11-21T02:19:20;8.70;99.90
6307;DHT22;3186;54.062;9.962;2023-11-21T02:21:52;8.70;99.90
6307;DHT22;3186;54.062;9.962;2023-11-21T02:24:21;8.80;99.90
6307;DHT22;3186;54.062;9.962;2023-11-21T02:26:50;8.80;99.90
6307;DHT22;3186;54.062;9.962;2023-11-21T02:29:20;8.80;99.90
6307;DHT22;3186;54.062;9.962;2023-11-21T02:31:49;8.80;99.90
6307;DHT22;3186;54.062;9.962;2023-11-21T02:34:16;8.80;99.90
6307;DHT22;3186;54.062;9.962;2023-11-21T02:36:46;8.80;99.90
6307;DHT22;3186;54.062;9.962;2023-11-21T02:39:12;8.70;99.90
6307;DHT22;3186;54.062;9.962;2023-11-21T02:41:38;8.70;99.90
6307;DHT22;3186;54.062;9.962;2023-11-21T02:44:08;8.70;99.90
6307;DHT22;3186;54.062;9.962;2023-11-21T02:46:34;8.80;99.90
6307;DHT22;3186;54.062;9.962;2023-11-21T02:49:04;8.70;99.90
6307;DHT22;3186;54.062;9.962;2023-11-21T02:51:33;8.70;99.90
6307;DHT22;3186;54.062;9.962;2023-11-21T02:53:59;8.70;99.90
6307;DHT22;3186;54.062;9.962;2023-11-21T02:56:27;8.70;99.90
6307;DHT22;3186;54.062;9.962;2023-11-21T02:58:55;8.70;99.90
6307;DHT22;3186;54.062;9.962;2023-11-21T03:01:22;8.60;99.90
6307;DHT22;3186;54.062;9.962;2023-11-21T03:03:49;8.70;99.90
6307;DHT22;3186;54.062;9.962;2023-11-21T03:06:17;8.70;99.90
6307;DHT22;3186;54.062;9.962;2023-11-21T03:08:43;8.70;99.90
6307;DHT22;3186;54.062;9.962;2023-11-21T03:11:09;8.70;99.90
6307;DHT22;3186;54.062;9.962;2023-11-21T03:13:34;8.70;99.90
6307;DHT22;3186;54.062;9.962;2023-11-21T03:16:00;8.60;99.90
6307;DHT22;3186;54.062;9.962;2023-11-21T03:18:25;8.70;99.90
6307;DHT22;3186;54.062;9.962;2023-11-21T03:20:52;8.70;99.90
6307;DHT22;3186;54.062;9.962;2023-11-21T03:23:18;8.70;99.90
6307;DHT22;3186;54.062;9.962;2023-11-21T03:25:44;8.70;99.90
6307;DHT22;3186;54.062;9.962;2023-11-21T03:28:09;8.70;99.90
6307;DHT22;3186;54.062;9.962;2023-11-21T03:30:35;8.60;99.90
6307;DHT22;3186;54.062;9.962;2023-11-21T03:33:01;8.70;99.90
6307;DHT22;3186;54.062;9.962;2023-11-21T03:35:26;8.60;99.90
6307;DHT22;3186;54.062;9.962;2023-11-21T03:37:53;8.60;99.90
6307;DHT22;3186;54.062;9.962;2023-11-21T03:40:19;8.60;99.90
6307;DHT22;3186;54.062;9.962;2023-11-21T03:42:46;8.60;99.90
6307;DHT22;3186;54.062;9.962;2023-11-21T03:45:12;8.60;99.90
6307;DHT22;3186;54.062;9.962;2023-11-21T03:47:43;8.50;99.90
6307;DHT22;3186;54.062;9.962;2023-11-21T03:50:08;8.60;99.90
6307;DHT22;3186;54.062;9.962;2023-11-21T03:52:35;8.60;99.90
6307;DHT22;3186;54.062;9.962;2023-11-21T03:55:01;8.50;99.90
6307;DHT22;3186;54.062;9.962;2023-11-21T03:57:28;8.50;99.90
6307;DHT22;3186;54.062;9.962;2023-11-21T03:59:54;8.50;99.90
6307;DHT22;3186;54.062;9.962;2023-11-21T04:02:19;8.50;99.90
6307;DHT22;3186;54.062;9.962;2023-11-21T04:04:45;8.50;99.90
6307;DHT22;3186;54.062;9.962;2023-11-21T04:07:11;8.50;99.90
6307;DHT22;3186;54.062;9.962;2023-11-21T04:09:39;8.50;99.90
6307;DHT22;3186;54.062;9.962;2023-11-21T04:12:05;8.50;99.90
6307;DHT22;3186;54.062;9.962;2023-11-21T04:14:30;8.50;99.90
6307;DHT22;3186;54.062;9.962;2023-11-21T04:16:57;8.50;99.90
6307;DHT22;3186;54.062;9.962;2023-11-21T04:19:22;8.50;99.90
6307;DHT22;3186;54.062;9.962;2023-11-21T04:21:48;8.50;99.90
6307;DHT22;3186;54.062;9.962;2023-11-21T04:24:14;8.50;99.90
6307;DHT22;3186;54.062;9.962;2023-11-21T04:26:39;8.50;99.90
6307;DHT22;3186;54.062;9.962;2023-11-21T04:29:05;8.50;99.90
6307;DHT22;3186;54.062;9.962;2023-11-21T04:31:31;8.50;99.90
6307;DHT22;3186;54.062;9.962;2023-11-21T04:33:57;8.50;99.90
6307;DHT22;3186;54.062;9.962;2023-11-21T04:36:23;8.40;99.90
6307;DHT22;3186;54.062;9.962;2023-11-21T04:38:48;8.50;99.90
6307;DHT22;3186;54.062;9.962;2023-11-21T04:41:14;8.40;99.90
6307;DHT22;3186;54.062;9.962;2023-11-21T04:43:39;8.40;99.90
6307;DHT22;3186;54.062;9.962;2023-11-21T04:46:05;8.40;99.90
6307;DHT22;3186;54.062;9.962;2023-11-21T04:48:32;8.40;99.90
6307;DHT22;3186;54.062;9.962;2023-11-21T04:50:58;8.40;99.90
6307;DHT22;3186;54.062;9.962;2023-11-21T04:53:24;8.40;99.90
6307;DHT22;3186;54.062;9.962;2023-11-21T04:55:50;8.40;99.90
6307;DHT22;3186;54.062;9.962;2023-11-21T04:58:16;8.50;99.90
6307;DHT22;3186;54.062;9.962;2023-11-21T05:00:41;8.40;99.90
6307;DHT22;3186;54.062;9.962;2023-11-21T05:03:09;8.40;99.90
6307;DHT22;3186;54.062;9.962;2023-11-21T05:05:35;8.40;99.90
6307;DHT22;3186;54.062;9.962;2023-11-21T05:08:00;8.40;99.90
6307;DHT22;3186;54.062;9.962;2023-11-21T05:10:27;8.40;99.90
6307;DHT22;3186;54.062;9.962;2023-11-21T05:12:52;8.40;99.90
6307;DHT22;3186;54.062;9.962;2023-11-21T05:15:18;8.40;99.90
6307;DHT22;3186;54.062;9.962;2023-11-21T05:17:44;8.40;99.90
6307;DHT22;3186;54.062;9.962;2023-11-21T05:20:11;8.40;99.90
6307;DHT22;3186;54.062;9.962;2023-11-21T05:22:39;8.40;99.90
6307;DHT22;3186;54.062;9.962;2023-11-21T05:25:06;8.40;99.90
6307;DHT22;3186;54.062;9.962;2023-11-21T05:27:33;8.40;99.90
6307;DHT22;3186;54.062;9.962;2023-11-21T05:30:03;8.40;99.90
6307;DHT22;3186;54.062;9.962;2023-11-21T05:32:33;8.40;99.90
6307;DHT22;3186;54.062;9.962;2023-11-21T05:34:59;8.40;99.90
6307;DHT22;3186;54.062;9.962;2023-11-21T05:37:25;8.40;99.90
6307;DHT22;3186;54.062;9.962;2023-11-21T05:39:53;8.40;99.90
6307;DHT22;3186;54.062;9.962;2023-11-21T05:42:18;8.40;99.90
6307;DHT22;3186;54.062;9.962;2023-11-21T05:44:44;8.40;99.90
6307;DHT22;3186;54.062;9.962;2023-11-21T05:47:10;8.30;99.90
6307;DHT22;3186;54.062;9.962;2023-11-21T05:49:36;8.40;99.90
6307;DHT22;3186;54.062;9.962;2023-11-21T05:52:02;8.40;99.90
6307;DHT22;3186;54.062;9.962;2023-11-21T05:54:28;8.30;99.90
6307;DHT22;3186;54.062;9.962;2023-11-21T05:56:54;8.30;99.90
6307;DHT22;3186;54.062;9.962;2023-11-21T05:59:19;8.30;99.90
6307;DHT22;3186;54.062;9.962;2023-11-21T06:01:46;8.30;99.90
6307;DHT22;3186;54.062;9.962;2023-11-21T06:04:13;8.30;99.90
6307;DHT22;3186;54.062;9.962;2023-11-21T06:06:39;8.20;99.90
6307;DHT22;3186;54.062;9.962;2023-11-21T06:09:05;8.20;99.90
6307;DHT22;3186;54.062;9.962;2023-11-21T06:11:31;8.20;99.90
6307;DHT22;3186;54.062;9.962;2023-11-21T06:13:57;8.20;99.90
6307;DHT22;3186;54.062;9.962;2023-11-21T06:16:23;8.20;99.90
6307;DHT22;3186;54.062;9.962;2023-11-21T06:18:49;8.20;99.90
6307;DHT22;3186;54.062;9.962;2023-11-21T06:21:15;8.20;99.90
6307;DHT22;3186;54.062;9.962;2023-11-21T06:23:42;8.20;99.90
6307;DHT22;3186;54.062;9.962;2023-11-21T06:26:08;8.20;99.90
6307;DHT22;3186;54.062;9.962;2023-11-21T06:28:35;8.20;99.90
6307;DHT22;3186;54.062;9.962;2023-11-21T06:31:02;8.20;99.90
6307;DHT22;3186;54.062;9.962;2023-11-21T06:33:34;8.20;99.90
6307;DHT22;3186;54.062;9.962;2023-11-21T06:35:59;8.20;99.90
6307;DHT22;3186;54.062;9.962;2023-11-21T06:38:28;8.20;99.90
6307;DHT22;3186;54.062;9.962;2023-11-21T06:40:58;8.20;99.90
6307;DHT22;3186;54.062;9.962;2023-11-21T06:43:27;8.20;99.90
6307;DHT22;3186;54.062;9.962;2023-11-21T06:45:53;8.20;99.90
6307;DHT22;3186;54.062;9.962;2023-11-21T06:48:19;8.10;99.90
6307;DHT22;3186;54.062;9.962;2023-11-21T06:50:45;8.20;99.90
6307;DHT22;3186;54.062;9.962;2023-11-21T06:53:12;8.20;99.90
6307;DHT22;3186;54.062;9.962;2023-11-21T06:55:38;8.20;99.90
6307;DHT22;3186;54.062;9.962;2023-11-21T06:58:04;8.10;99.90
6307;DHT22;3186;54.062;9.962;2023-11-21T07:00:30;8.10;99.90
6307;DHT22;3186;54.062;9.962;2023-11-21T07:02:56;8.10;99.90
6307;DHT22;3186;54.062;9.962;2023-11-21T07:05:22;8.10;99.90
6307;DHT22;3186;54.062;9.962;2023-11-21T07:07:48;8.10;99.90
6307;DHT22;3186;54.062;9.962;2023-11-21T07:10:15;8.00;99.90
6307;DHT22;3186;54.062;9.962;2023-11-21T07:12:40;8.00;99.90
6307;DHT22;3186;54.062;9.962;2023-11-21T07:15:07;8.00;99.90
6307;DHT22;3186;54.062;9.962;2023-11-21T07:17:37;8.00;99.90
6307;DHT22;3186;54.062;9.962;2023-11-21T07:20:03;8.00;99.90
6307;DHT22;3186;54.062;9.962;2023-11-21T07:22:29;8.00;99.90
6307;DHT22;3186;54.062;9.962;2023-11-21T07:24:55;8.00;99.90
6307;DHT22;3186;54.062;9.962;2023-11-21T07:27:22;8.00;99.90
6307;DHT22;3186;54.062;9.962;2023-11-21T07:29:47;8.00;99.90
6307;DHT22;3186;54.062;9.962;2023-11-21T07:32:14;8.00;99.90
6307;DHT22;3186;54.062;9.962;2023-11-21T07:34:40;8.00;99.90
6307;DHT22;3186;54.062;9.962;2023-11-21T07:37:07;8.00;99.90
6307;DHT22;3186;54.062;9.962;2023-11-21T07:39:35;8.00;99.90
6307;DHT22;3186;54.062;9.962;2023-11-21T07:42:01;8.00;99.90
6307;DHT22;3186;54.062;9.962;2023-11-21T07:44:28;8.00;99.90
6307;DHT22;3186;54.062;9.962;2023-11-21T07:46:54;8.00;99.90
6307;DHT22;3186;54.062;9.962;2023-11-21T07:49:23;8.00;99.90
6307;DHT22;3186;54.062;9.962;2023-11-21T07:51:49;7.90;99.90
6307;DHT22;3186;54.062;9.962;2023-11-21T07:54:16;7.90;99.90
6307;DHT22;3186;54.062;9.962;2023-11-21T07:56:41;7.90;99.90
6307;DHT22;3186;54.062;9.962;2023-11-21T07:59:07;8.00;99.90
6307;DHT22;3186;54.062;9.962;2023-11-21T08:01:33;8.00;99.90
6307;DHT22;3186;54.062;9.962;2023-11-21T08:03:59;7.90;99.90
6307;DHT22;3186;54.062;9.962;2023-11-21T08:06:30;7.90;99.90
6307;DHT22;3186;54.062;9.962;2023-11-21T08:08:56;7.90;99.90
6307;DHT22;3186;54.062;9.962;2023-11-21T08:11:22;7.90;99.90
6307;DHT22;3186;54.062;9.962;2023-11-21T08:13:48;7.90;99.90
6307;DHT22;3186;54.062;9.962;2023-11-21T08:16:14;8.00;99.90
6307;DHT22;3186;54.062;9.962;2023-11-21T08:18:39;7.90;99.90
6307;DHT22;3186;54.062;9.962;2023-11-21T08:21:06;7.90;99.90
6307;DHT22;3186;54.062;9.962;2023-11-21T08:23:33;7.90;99.90
6307;DHT22;3186;54.062;9.962;2023-11-21T08:26:00;7.90;99.90
6307;DHT22;3186;54.062;9.962;2023-11-21T08:28:25;8.00;99.90
6307;DHT22;3186;54.062;9.962;2023-11-21T08:30:52;8.00;99.90
6307;DHT22;3186;54.062;9.962;2023-11-21T08:33:18;7.90;99.90
6307;DHT22;3186;54.062;9.962;2023-11-21T08:35:44;7.90;99.90
6307;DHT22;3186;54.062;9.962;2023-11-21T08:38:11;7.90;99.90
6307;DHT22;3186;54.062;9.962;2023-11-21T08:40:37;7.90;99.90
6307;DHT22;3186;54.062;9.962;2023-11-21T08:43:03;7.90;99.90
6307;DHT22;3186;54.062;9.962;2023-11-21T08:45:33;7.90;99.90
6307;DHT22;3186;54.062;9.962;2023-11-21T08:48:00;7.90;99.90
6307;DHT22;3186;54.062;9.962;2023-11-21T08:50:26;8.00;99.90
6307;DHT22;3186;54.062;9.962;2023-11-21T08:52:52;7.90;99.90
6307;DHT22;3186;54.062;9.962;2023-11-21T08:55:17;8.00;99.90
6307;DHT22;3186;54.062;9.962;2023-11-21T08:57:45;8.00;99.90
6307;DHT22;3186;54.062;9.962;2023-11-21T09:00:12;8.00;99.90
6307;DHT22;3186;54.062;9.962;2023-11-21T09:02:38;7.90;99.90
6307;DHT22;3186;54.062;9.962;2023-11-21T09:05:05;8.00;99.90
6307;DHT22;3186;54.062;9.962;2023-11-21T09:07:31;8.00;99.90
6307;DHT22;3186;54.062;9.962;2023-11-21T09:09:57;8.00;99.90
6307;DHT22;3186;54.062;9.962;2023-11-21T09:12:23;8.00;99.90
6307;DHT22;3186;54.062;9.962;2023-11-21T09:14:50;8.00;99.90
6307;DHT22;3186;54.062;9.962;2023-11-21T09:17:16;8.00;99.90
6307;DHT22;3186;54.062;9.962;2023-11-21T09:19:42;8.10;99.90
6307;DHT22;3186;54.062;9.962;2023-11-21T09:22:10;8.10;99.90
6307;DHT22;3186;54.062;9.962;2023-11-21T09:24:36;8.10;99.90
6307;DHT22;3186;54.062;9.962;2023-11-21T09:27:03;8.10;99.90
6307;DHT22;3186;54.062;9.962;2023-11-21T09:29:30;8.10;99.90
6307;DHT22;3186;54.062;9.962;2023-11-21T09:31:57;8.10;99.90
6307;DHT22;3186;54.062;9.962;2023-11-21T09:34:25;8.10;99.90
6307;DHT22;3186;54.062;9.962;2023-11-21T09:36:51;8.10;99.90
6307;DHT22;3186;54.062;9.962;2023-11-21T09:39:17;8.10;99.90
6307;DHT22;3186;54.062;9.962;2023-11-21T09:41:49;8.10;99.90
6307;DHT22;3186;54.062;9.962;2023-11-21T09:44:18;8.10;99.90
6307;DHT22;3186;54.062;9.962;2023-11-21T09:46:47;8.20;99.90
6307;DHT22;3186;54.062;9.962;2023-11-21T09:49:23;8.40;99.90
6307;DHT22;3186;54.062;9.962;2023-11-21T09:51:54;8.30;99.90
6307;DHT22;3186;54.062;9.962;2023-11-21T09:54:20;8.30;99.90
6307;DHT22;3186;54.062;9.962;2023-11-21T09:56:47;8.20;99.90
6307;DHT22;3186;54.062;9.962;2023-11-21T09:59:15;8.20;99.90
6307;DHT22;3186;54.062;9.962;2023-11-21T10:01:41;8.30;99.90
6307;DHT22;3186;54.062;9.962;2023-11-21T10:04:08;8.30;99.90
6307;DHT22;3186;54.062;9.962;2023-11-21T10:06:41;8.30;99.90
6307;DHT22;3186;54.062;9.962;2023-11-21T10:09:10;8.30;99.90
6307;DHT22;3186;54.062;9.962;2023-11-21T10:11:41;8.20;99.90
6307;DHT22;3186;54.062;9.962;2023-11-21T10:14:11;8.30;99.90
6307;DHT22;3186;54.062;9.962;2023-11-21T10:16:41;8.30;99.90
6307;DHT22;3186;54.062;9.962;2023-11-21T10:19:10;8.30;99.90
6307;DHT22;3186;54.062;9.962;2023-11-21T10:21:37;8.40;99.90
6307;DHT22;3186;54.062;9.962;2023-11-21T10:24:03;8.30;99.90
6307;DHT22;3186;54.062;9.962;2023-11-21T10:26:29;8.40;99.90
6307;DHT22;3186;54.062;9.962;2023-11-21T10:29:03;8.30;99.90
6307;DHT22;3186;54.062;9.962;2023-11-21T10:31:30;8.30;99.90
6307;DHT22;3186;54.062;9.962;2023-11-21T10:34:16;8.30;99.90
6307;DHT22;3186;54.062;9.962;2023-11-21T10:36:42;8.30;99.90
6307;DHT22;3186;54.062;9.962;2023-11-21T10:39:08;8.30;99.90
6307;DHT22;3186;54.062;9.962;2023-11-21T10:41:35;8.30;99.90
6307;DHT22;3186;54.062;9.962;2023-11-21T10:44:02;8.30;99.90
6307;DHT22;3186;54.062;9.962;2023-11-21T10:46:32;8.30;99.90
6307;DHT22;3186;54.062;9.962;2023-11-21T10:48:59;8.30;99.90
6307;DHT22;3186;54.062;9.962;2023-11-21T10:51:25;8.30;99.90
6307;DHT22;3186;54.062;9.962;2023-11-21T10:53:54;8.30;99.90
6307;DHT22;3186;54.062;9.962;2023-11-21T10:56:23;8.30;99.90
6307;DHT22;3186;54.062;9.962;2023-11-21T10:58:49;8.30;99.90
6307;DHT22;3186;54.062;9.962;2023-11-21T11:01:18;8.30;99.90
6307;DHT22;3186;54.062;9.962;2023-11-21T11:03:44;8.40;99.90
6307;DHT22;3186;54.062;9.962;2023-11-21T11:06:10;8.40;99.90
6307;DHT22;3186;54.062;9.962;2023-11-21T11:08:38;8.50;99.90
6307;DHT22;3186;54.062;9.962;2023-11-21T11:11:05;8.40;99.90
6307;DHT22;3186;54.062;9.962;2023-11-21T11:13:31;8.50;99.90
6307;DHT22;3186;54.062;9.962;2023-11-21T11:16:01;8.50;99.90
6307;DHT22;3186;54.062;9.962;2023-11-21T11:18:29;8.40;99.90
6307;DHT22;3186;54.062;9.962;2023-11-21T11:21:15;8.40;99.90
6307;DHT22;3186;54.062;9.962;2023-11-21T11:27:01;8.50;99.90
6307;DHT22;3186;54.062;9.962;2023-11-21T11:29:46;8.50;99.90
6307;DHT22;3186;54.062;9.962;2023-11-21T11:35:07;8.60;99.90
6307;DHT22;3186;54.062;9.962;2023-11-21T11:37:35;8.60;99.90
6307;DHT22;3186;54.062;9.962;2023-11-21T11:40:06;8.50;99.90
6307;DHT22;3186;54.062;9.962;2023-11-21T11:42:32;8.50;99.90
6307;DHT22;3186;54.062;9.962;2023-11-21T11:44:58;8.40;99.90
6307;DHT22;3186;54.062;9.962;2023-11-21T11:47:25;8.50;99.90
6307;DHT22;3186;54.062;9.962;2023-11-21T11:50:09;8.50;99.90
6307;DHT22;3186;54.062;9.962;2023-11-21T11:52:54;8.50;99.90
6307;DHT22;3186;54.062;9.962;2023-11-21T11:55:24;8.50;99.90
6307;DHT22;3186;54.062;9.962;2023-11-21T11:57:54;8.50;99.90
6307;DHT22;3186;54.062;9.962;2023-11-21T12:02:54;8.50;99.90
6307;DHT22;3186;54.062;9.962;2023-11-21T12:05:22;8.50;99.90
6307;DHT22;3186;54.062;9.962;2023-11-21T12:07:52;8.50;99.90
6307;DHT22;3186;54.062;9.962;2023-11-21T12:10:24;8.50;99.90
6307;DHT22;3186;54.062;9.962;2023-11-21T12:15:27;8.40;99.90
6307;DHT22;3186;54.062;9.962;2023-11-21T12:17:56;8.40;99.90
6307;DHT22;3186;54.062;9.962;2023-11-21T12:20:23;8.40;99.90
6307;DHT22;3186;54.062;9.962;2023-11-21T12:22:54;8.40;99.90
6307;DHT22;3186;54.062;9.962;2023-11-21T12:25:24;8.40;99.90
6307;DHT22;3186;54.062;9.962;2023-11-21T12:27:54;8.40;99.90
6307;DHT22;3186;54.062;9.962;2023-11-21T12:30:22;8.40;99.90
6307;DHT22;3186;54.062;9.962;2023-11-21T12:32:52;8.40;99.90
6307;DHT22;3186;54.062;9.962;2023-11-21T12:35:26;8.40;99.90
6307;DHT22;3186;54.062;9.962;2023-11-21T12:37:53;8.40;99.90
6307;DHT22;3186;54.062;9.962;2023-11-21T12:40:20;8.40;99.90
6307;DHT22;3186;54.062;9.962;2023-11-21T12:42:50;8.50;99.90
6307;DHT22;3186;54.062;9.962;2023-11-21T12:47:58;8.50;99.90
6307;DHT22;3186;54.062;9.962;2023-11-21T12:50:30;8.50;99.90
6307;DHT22;3186;54.062;9.962;2023-11-21T12:53:03;8.50;99.90
6307;DHT22;3186;54.062;9.962;2023-11-21T12:55:32;8.40;99.90
6307;DHT22;3186;54.062;9.962;2023-11-21T12:58:01;8.40;99.90
6307;DHT22;3186;54.062;9.962;2023-11-21T13:00:39;8.40;99.90
6307;DHT22;3186;54.062;9.962;2023-11-21T13:03:07;8.40;99.90
6307;DHT22;3186;54.062;9.962;2023-11-21T13:05:38;8.30;99.90
6307;DHT22;3186;54.062;9.962;2023-11-21T13:08:06;8.40;99.90
6307;DHT22;3186;54.062;9.962;2023-11-21T13:10:39;8.30;99.90
6307;DHT22;3186;54.062;9.962;2023-11-21T13:13:07;8.20;99.90
6307;DHT22;3186;54.062;9.962;2023-11-21T13:15:36;8.20;99.90
6307;DHT22;3186;54.062;9.962;2023-11-21T13:18:03;8.40;99.90
6307;DHT22;3186;54.062;9.962;2023-11-21T13:20:29;8.20;99.90
6307;DHT22;3186;54.062;9.962;2023-11-21T13:22:56;8.30;99.90
6307;DHT22;3186;54.062;9.962;2023-11-21T13:25:27;8.30;99.90
6307;DHT22;3186;54.062;9.962;2023-11-21T13:27:55;8.30;99.90
6307;DHT22;3186;54.062;9.962;2023-11-21T13:30:22;8.30;99.90
6307;DHT22;3186;54.062;9.962;2023-11-21T13:32:52;8.20;99.90
6307;DHT22;3186;54.062;9.962;2023-11-21T13:35:19;8.20;99.90
6307;DHT22;3186;54.062;9.962;2023-11-21T13:37:56;8.30;99.90
6307;DHT22;3186;54.062;9.962;2023-11-21T13:40:25;8.20;99.90
6307;DHT22;3186;54.062;9.962;2023-11-21T13:42:55;8.20;99.90
6307;DHT22;3186;54.062;9.962;2023-11-21T13:45:25;8.20;99.90
6307;DHT22;3186;54.062;9.962;2023-11-21T13:47:53;8.20;99.90
6307;DHT22;3186;54.062;9.962;2023-11-21T13:50:25;8.20;99.90
6307;DHT22;3186;54.062;9.962;2023-11-21T13:53:03;8.20;99.90
6307;DHT22;3186;54.062;9.962;2023-11-21T13:55:36;8.20;99.90
6307;DHT22;3186;54.062;9.962;2023-11-21T13:58:03;8.10;99.90
6307;DHT22;3186;54.062;9.962;2023-11-21T14:00:30;8.10;99.90
6307;DHT22;3186;54.062;9.962;2023-11-21T14:03:11;8.00;99.90
6307;DHT22;3186;54.062;9.962;2023-11-21T14:05:44;7.90;99.90
6307;DHT22;3186;54.062;9.962;2023-11-21T14:08:12;8.00;99.90
6307;DHT22;3186;54.062;9.962;2023-11-21T14:10:42;8.00;99.90
6307;DHT22;3186;54.062;9.962;2023-11-21T14:13:16;8.00;99.90
6307;DHT22;3186;54.062;9.962;2023-11-21T14:15:42;8.00;99.90
6307;DHT22;3186;54.062;9.962;2023-11-21T14:18:11;7.90;99.90
6307;DHT22;3186;54.062;9.962;2023-11-21T14:20:40;8.00;99.90
6307;DHT22;3186;54.062;9.962;2023-11-21T14:23:06;8.00;99.90
6307;DHT22;3186;54.062;9.962;2023-11-21T14:25:36;8.00;99.90
6307;DHT22;3186;54.062;9.962;2023-11-21T14:28:03;8.00;99.90
6307;DHT22;3186;54.062;9.962;2023-11-21T14:30:29;8.00;99.90
6307;DHT22;3186;54.062;9.962;2023-11-21T14:32:58;8.00;99.90
6307;DHT22;3186;54.062;9.962;2023-11-21T14:35:24;8.00;99.90
6307;DHT22;3186;54.062;9.962;2023-11-21T14:37:50;7.80;99.90
6307;DHT22;3186;54.062;9.962;2023-11-21T14:40:15;8.00;99.90
6307;DHT22;3186;54.062;9.962;2023-11-21T14:42:42;8.00;99.90
6307;DHT22;3186;54.062;9.962;2023-11-21T14:45:09;8.00;99.90
6307;DHT22;3186;54.062;9.962;2023-11-21T14:47:37;7.90;99.90
6307;DHT22;3186;54.062;9.962;2023-11-21T14:50:08;7.90;99.90
6307;DHT22;3186;54.062;9.962;2023-11-21T14:52:53;7.80;99.90
6307;DHT22;3186;54.062;9.962;2023-11-21T14:55:25;7.80;99.90
6307;DHT22;3186;54.062;9.962;2023-11-21T14:57:58;7.70;99.90
6307;DHT22;3186;54.062;9.962;2023-11-21T15:00:28;7.70;99.90
6307;DHT22;3186;54.062;9.962;2023-11-21T15:03:00;7.70;99.90
6307;DHT22;3186;54.062;9.962;2023-11-21T15:05:26;7.70;99.90
6307;DHT22;3186;54.062;9.962;2023-11-21T15:07:53;7.70;99.90
6307;DHT22;3186;54.062;9.962;2023-11-21T15:10:25;7.60;99.90
6307;DHT22;3186;54.062;9.962;2023-11-21T15:13:11;7.70;99.90
6307;DHT22;3186;54.062;9.962;2023-11-21T15:15:37;7.60;99.90
6307;DHT22;3186;54.062;9.962;2023-11-21T15:18:03;7.60;99.90
6307;DHT22;3186;54.062;9.962;2023-11-21T15:20:29;7.60;99.90
6307;DHT22;3186;54.062;9.962;2023-11-21T15:22:55;7.60;99.90
6307;DHT22;3186;54.062;9.962;2023-11-21T15:25:21;7.60;99.90
6307;DHT22;3186;54.062;9.962;2023-11-21T15:27:47;7.50;99.90
6307;DHT22;3186;54.062;9.962;2023-11-21T15:30:21;7.50;99.90
6307;DHT22;3186;54.062;9.962;2023-11-21T15:32:50;7.50;99.90
6307;DHT22;3186;54.062;9.962;2023-11-21T15:35:16;7.40;99.90
6307;DHT22;3186;54.062;9.962;2023-11-21T15:37:42;7.40;99.90
6307;DHT22;3186;54.062;9.962;2023-11-21T15:40:10;7.40;99.90
6307;DHT22;3186;54.062;9.962;2023-11-21T15:42:36;7.40;99.90
6307;DHT22;3186;54.062;9.962;2023-11-21T15:45:03;7.30;99.90
6307;DHT22;3186;54.062;9.962;2023-11-21T15:47:32;7.30;99.90
6307;DHT22;3186;54.062;9.962;2023-11-21T15:49:58;7.30;99.90
6307;DHT22;3186;54.062;9.962;2023-11-21T15:52:24;7.20;99.90
6307;DHT22;3186;54.062;9.962;2023-11-21T15:54:49;7.20;99.90
6307;DHT22;3186;54.062;9.962;2023-11-21T15:57:15;7.20;99.90
6307;DHT22;3186;54.062;9.962;2023-11-21T15:59:43;7.10;99.90
6307;DHT22;3186;54.062;9.962;2023-11-21T16:02:10;7.10;99.90
6307;DHT22;3186;54.062;9.962;2023-11-21T16:04:37;7.10;99.90
6307;DHT22;3186;54.062;9.962;2023-11-21T16:07:06;7.10;99.90
6307;DHT22;3186;54.062;9.962;2023-11-21T16:09:33;7.10;99.90
6307;DHT22;3186;54.062;9.962;2023-11-21T16:12:04;7.00;99.90
6307;DHT22;3186;54.062;9.962;2023-11-21T16:14:33;7.00;99.90
6307;DHT22;3186;54.062;9.962;2023-11-21T16:17:11;6.90;99.90
6307;DHT22;3186;54.062;9.962;2023-11-21T16:19:40;6.90;99.90
6307;DHT22;3186;54.062;9.962;2023-11-21T16:22:07;7.00;99.90
6307;DHT22;3186;54.062;9.962;2023-11-21T16:24:33;6.90;99.90
6307;DHT22;3186;54.062;9.962;2023-11-21T16:26:59;6.90;99.90
6307;DHT22;3186;54.062;9.962;2023-11-21T16:29:24;6.90;99.90
6307;DHT22;3186;54.062;9.962;2023-11-21T16:31:51;6.80;99.90
6307;DHT22;3186;54.062;9.962;2023-11-21T16:34:18;6.70;99.90